Time;durP1;ratioP1;P1;durP2;ratioP2;P2;SDS_P1;SDS_P2;PMS_P1;PMS_P2;Temp;Humidity;BMP_temperature;BMP_pressure;BME280_temperature;BME280_humidity;BME280_pressure;Samples;Min_cycle;Max_cycle;Signal;HPM_P1;HPM_P2
2021/10/07 00:01:18;;;;;;;2.38;1.67;;;10.80;99.20;;;;;;6302995;22;20406;-76
2021/10/07 00:03:44;;;;;;;4.20;1.92;;;10.80;99.20;;;;;;6303233;22;20084;-76
2021/10/07 00:06:09;;;;;;;2.13;1.42;;;10.80;99.20;;;;;;6302909;22;19999;-75
2021/10/07 00:08:35;;;;;;;1.63;1.35;;;10.80;99.20;;;;;;6302554;22;20044;-76
2021/10/07 00:11:00;;;;;;;2.90;1.63;;;10.80;99.30;;;;;;6303062;22;20012;-75
2021/10/07 00:13:26;;;;;;;2.90;1.90;;;10.70;99.30;;;;;;6302484;22;20098;-77
2021/10/07 00:15:52;;;;;;;4.10;1.92;;;10.70;99.30;;;;;;6302821;22;19999;-76
2021/10/07 00:18:18;;;;;;;2.55;1.80;;;10.70;99.30;;;;;;6301757;22;20043;-75
2021/10/07 00:20:43;;;;;;;5.30;1.80;;;10.70;99.30;;;;;;6301779;22;19999;-75
2021/10/07 00:23:09;;;;;;;5.03;1.70;;;10.70;99.30;;;;;;6303387;22;19997;-75
2021/10/07 00:25:35;;;;;;;3.15;1.80;;;10.60;99.40;;;;;;6303012;22;20003;-76
2021/10/07 00:28:08;;;;;;;2.92;1.65;;;10.60;99.40;;;;;;6302622;22;20072;-75
2021/10/07 00:30:34;;;;;;;4.53;1.77;;;10.60;99.40;;;;;;6302368;22;20031;-77
2021/10/07 00:35:47;;;;;;;3.60;1.70;;;10.60;99.60;;;;;;6302734;22;19999;-75
2021/10/07 00:40:57;;;;;;;1.92;1.50;;;10.50;99.60;;;;;;6302276;22;20014;-76
2021/10/07 00:43:22;;;;;;;4.80;1.77;;;10.50;99.60;;;;;;6302769;22;20007;-75
2021/10/07 00:45:53;;;;;;;2.53;1.80;;;10.50;99.70;;;;;;6303360;22;19999;-75
2021/10/07 00:48:20;;;;;;;4.35;1.83;;;10.50;99.80;;;;;;6301979;22;20002;-74
2021/10/07 00:50:45;;;;;;;3.50;1.73;;;10.50;99.80;;;;;;6302136;22;20032;-75
2021/10/07 00:53:13;;;;;;;2.63;1.92;;;10.50;99.90;;;;;;6302422;22;20078;-75
2021/10/07 00:55:38;;;;;;;3.63;2.10;;;10.40;99.80;;;;;;6302500;22;20003;-75
2021/10/07 00:58:04;;;;;;;2.95;2.15;;;10.40;99.80;;;;;;6301597;22;19999;-74
2021/10/07 01:00:29;;;;;;;3.55;2.17;;;10.40;99.80;;;;;;6275326;22;20410;-74
2021/10/07 01:02:55;;;;;;;2.97;1.88;;;10.40;99.90;;;;;;6301708;22;19999;-76
2021/10/07 01:05:22;;;;;;;2.63;2.15;;;10.40;99.90;;;;;;6302618;22;19995;-75
2021/10/07 01:07:47;;;;;;;2.70;1.88;;;10.40;99.90;;;;;;6301227;22;20353;-76
2021/10/07 01:10:13;;;;;;;5.35;2.45;;;10.30;99.90;;;;;;6301820;22;20004;-76
2021/10/07 01:12:39;;;;;;;3.08;2.53;;;10.30;99.90;;;;;;6274963;22;19995;-77
2021/10/07 01:15:05;;;;;;;3.50;1.98;;;10.30;99.90;;;;;;6301774;22;20014;-76
2021/10/07 01:17:31;;;;;;;2.65;2.05;;;10.30;99.90;;;;;;6302082;22;20326;-76
2021/10/07 01:20:03;;;;;;;5.18;2.08;;;10.30;99.90;;;;;;6301011;22;20003;-77
2021/10/07 01:22:29;;;;;;;3.70;2.10;;;10.20;99.90;;;;;;6302489;22;19999;-76
2021/10/07 01:24:55;;;;;;;3.33;2.47;;;10.20;99.90;;;;;;6302360;22;19999;-77
2021/10/07 01:27:25;;;;;;;7.75;2.53;;;10.20;99.90;;;;;;6302022;22;20125;-76
2021/10/07 01:29:53;;;;;;;8.02;2.13;;;10.10;99.90;;;;;;6301167;22;20025;-76
2021/10/07 01:32:20;;;;;;;3.30;2.22;;;10.10;99.90;;;;;;6301753;22;20426;-77
2021/10/07 01:34:45;;;;;;;4.45;2.85;;;10.10;99.90;;;;;;6302314;22;20082;-77
2021/10/07 01:37:11;;;;;;;7.57;2.80;;;10.10;99.90;;;;;;6275164;22;20441;-76
2021/10/07 01:39:36;;;;;;;4.38;2.70;;;10.10;99.90;;;;;;6273742;22;20003;-76
2021/10/07 01:42:02;;;;;;;3.38;2.75;;;10.00;99.90;;;;;;6299431;22;20056;-76
2021/10/07 01:44:27;;;;;;;4.68;2.38;;;10.00;99.90;;;;;;6301253;22;20003;-77
2021/10/07 01:46:53;;;;;;;8.23;3.03;;;10.00;99.90;;;;;;6301651;22;19999;-76
2021/10/07 01:49:20;;;;;;;6.25;2.83;;;10.00;99.90;;;;;;6301472;22;19999;-76
2021/10/07 01:51:45;;;;;;;6.38;2.88;;;9.90;99.90;;;;;;6300733;22;20010;-76
2021/10/07 01:54:11;;;;;;;4.72;2.78;;;9.90;99.90;;;;;;6302270;22;19995;-76
2021/10/07 01:56:37;;;;;;;6.10;3.22;;;9.90;99.90;;;;;;6301580;22;20006;-76
2021/10/07 01:59:02;;;;;;;3.22;2.92;;;9.90;99.90;;;;;;6274104;22;20007;-77
2021/10/07 02:01:28;;;;;;;5.18;3.05;;;9.90;99.90;;;;;;6301549;22;20104;-77
2021/10/07 02:03:53;;;;;;;4.65;2.92;;;9.90;99.90;;;;;;6301695;22;20302;-76
2021/10/07 02:06:19;;;;;;;6.60;2.95;;;9.80;99.90;;;;;;6301415;22;20059;-76
2021/10/07 02:08:45;;;;;;;8.85;3.15;;;9.80;99.90;;;;;;6301069;22;19999;-76
2021/10/07 02:11:11;;;;;;;6.75;3.05;;;9.90;99.90;;;;;;6301851;22;20026;-76
2021/10/07 02:13:37;;;;;;;5.65;4.50;;;9.80;99.90;;;;;;6302622;22;20104;-76
2021/10/07 02:16:02;;;;;;;6.32;3.25;;;9.90;99.90;;;;;;6301663;22;20363;-76
2021/10/07 02:18:28;;;;;;;3.30;2.88;;;9.90;99.90;;;;;;6301896;22;20418;-76
2021/10/07 02:20:54;;;;;;;6.00;2.88;;;9.90;99.90;;;;;;6301770;22;20364;-77
2021/10/07 02:23:20;;;;;;;5.03;2.83;;;9.90;99.90;;;;;;6301447;22;20474;-76
2021/10/07 02:25:46;;;;;;;4.50;3.10;;;10.00;99.90;;;;;;6302656;22;20434;-77
2021/10/07 02:28:13;;;;;;;3.45;2.55;;;10.00;99.90;;;;;;6301473;22;20059;-75
2021/10/07 02:30:40;;;;;;;3.53;2.97;;;10.00;99.90;;;;;;6301729;22;20013;-75
2021/10/07 02:33:05;;;;;;;4.20;3.05;;;10.00;99.90;;;;;;6301795;22;20031;-76
2021/10/07 02:35:31;;;;;;;4.40;2.65;;;10.00;99.90;;;;;;6302037;22;20006;-75
2021/10/07 02:37:56;;;;;;;3.92;2.67;;;10.00;99.90;;;;;;6300830;22;20117;-76
2021/10/07 02:40:22;;;;;;;4.07;2.67;;;10.00;99.90;;;;;;6301247;22;20028;-76
2021/10/07 02:42:47;;;;;;;5.75;2.47;;;10.00;99.90;;;;;;6301471;22;20000;-76
2021/10/07 02:45:15;;;;;;;7.07;3.00;;;10.00;99.90;;;;;;6300899;22;20090;-76
2021/10/07 02:47:41;;;;;;;5.45;2.60;;;10.00;99.90;;;;;;6300932;22;20052;-77
2021/10/07 02:50:08;;;;;;;7.72;2.78;;;9.90;99.90;;;;;;6302429;22;20011;-76
2021/10/07 02:52:34;;;;;;;5.18;3.25;;;10.00;99.90;;;;;;6302054;22;20381;-76
2021/10/07 02:54:59;;;;;;;4.93;3.22;;;10.00;99.90;;;;;;6303063;22;19999;-76
2021/10/07 02:57:25;;;;;;;7.07;2.95;;;10.00;99.90;;;;;;6304426;22;20006;-77
2021/10/07 02:59:51;;;;;;;5.43;4.10;;;10.00;99.90;;;;;;6303226;22;20003;-76
2021/10/07 03:02:16;;;;;;;3.70;2.63;;;10.00;99.90;;;;;;6303859;22;20652;-74
2021/10/07 03:04:43;;;;;;;4.03;2.60;;;10.00;99.90;;;;;;6304234;22;19999;-75
2021/10/07 03:07:11;;;;;;;7.80;3.25;;;10.00;99.90;;;;;;6303634;22;20007;-77
2021/10/07 03:09:40;;;;;;;4.53;2.50;;;10.00;99.90;;;;;;6303831;22;20082;-76
2021/10/07 03:12:06;;;;;;;3.55;2.33;;;10.00;99.90;;;;;;6302937;22;20147;-76
2021/10/07 03:14:32;;;;;;;8.13;2.90;;;10.00;99.90;;;;;;6303971;22;20022;-75
2021/10/07 03:16:58;;;;;;;4.57;3.20;;;10.00;99.90;;;;;;6303773;22;20003;-76
2021/10/07 03:19:23;;;;;;;4.05;3.20;;;10.00;99.90;;;;;;6301439;22;20307;-75
2021/10/07 03:21:49;;;;;;;8.88;3.67;;;10.00;99.90;;;;;;6303689;22;19995;-76
2021/10/07 03:24:14;;;;;;;4.30;2.88;;;10.00;99.90;;;;;;6303972;22;20003;-76
2021/10/07 03:26:40;;;;;;;2.80;2.50;;;10.00;99.90;;;;;;6304052;22;20007;-75
2021/10/07 03:29:06;;;;;;;3.10;2.70;;;10.00;99.90;;;;;;6302965;22;20330;-76
2021/10/07 03:31:31;;;;;;;5.13;3.17;;;10.00;99.90;;;;;;6303167;22;20077;-75
2021/10/07 03:33:57;;;;;;;4.38;2.60;;;10.00;99.90;;;;;;6304187;22;20069;-76
2021/10/07 03:36:23;;;;;;;5.07;2.92;;;9.90;99.90;;;;;;6303304;22;20007;-76
2021/10/07 03:38:48;;;;;;;4.07;3.17;;;9.90;99.90;;;;;;6303117;22;20141;-74
2021/10/07 03:41:14;;;;;;;4.90;3.03;;;9.90;99.90;;;;;;6302648;22;20116;-75
2021/10/07 03:43:39;;;;;;;6.05;3.17;;;9.90;99.90;;;;;;6303662;22;19999;-75
2021/10/07 03:46:05;;;;;;;3.80;3.05;;;9.90;99.90;;;;;;6303656;22;20030;-75
2021/10/07 03:48:31;;;;;;;4.70;2.83;;;9.90;99.90;;;;;;6302351;22;20452;-75
2021/10/07 03:50:56;;;;;;;3.67;2.97;;;9.80;99.90;;;;;;6303104;22;20584;-75
2021/10/07 03:53:23;;;;;;;6.97;3.47;;;9.80;99.90;;;;;;6303758;22;20030;-76
2021/10/07 03:55:48;;;;;;;6.60;2.97;;;9.80;99.90;;;;;;6303661;22;19999;-76
2021/10/07 03:58:14;;;;;;;4.45;3.60;;;9.70;99.90;;;;;;6302843;22;20053;-77
2021/10/07 04:00:39;;;;;;;5.20;3.63;;;9.70;99.90;;;;;;6301273;22;20008;-77
2021/10/07 04:03:05;;;;;;;4.25;3.38;;;9.60;99.90;;;;;;6303386;22;20596;-75
2021/10/07 04:05:30;;;;;;;6.10;3.65;;;9.60;99.90;;;;;;6274943;22;20087;-77
2021/10/07 04:07:56;;;;;;;3.90;3.00;;;9.60;99.90;;;;;;6274022;22;20006;-75
2021/10/07 04:10:21;;;;;;;6.07;3.97;;;9.60;99.90;;;;;;6303342;22;20011;-76
2021/10/07 04:12:47;;;;;;;7.88;3.50;;;9.50;99.90;;;;;;6302334;22;20483;-75
2021/10/07 04:15:13;;;;;;;4.53;3.13;;;9.50;99.90;;;;;;6303949;22;20007;-78
2021/10/07 04:17:38;;;;;;;8.05;3.83;;;9.50;99.90;;;;;;6303033;22;19999;-77
2021/10/07 04:20:05;;;;;;;6.70;4.75;;;9.50;99.90;;;;;;6296451;22;20004;-75
2021/10/07 04:22:31;;;;;;;8.43;4.93;;;9.40;99.90;;;;;;6303216;22;20008;-74
2021/10/07 04:24:56;;;;;;;5.70;3.63;;;9.40;99.90;;;;;;6298323;22;19999;-77
2021/10/07 04:27:23;;;;;;;9.20;3.88;;;9.40;99.90;;;;;;6301747;22;20015;-75
2021/10/07 04:29:48;;;;;;;9.30;4.00;;;9.40;99.90;;;;;;6301198;22;20000;-76
2021/10/07 04:32:14;;;;;;;4.32;3.45;;;9.30;99.90;;;;;;6301347;22;20098;-75
2021/10/07 04:34:39;;;;;;;7.85;4.03;;;9.30;99.90;;;;;;6296984;22;20003;-76
2021/10/07 04:37:05;;;;;;;5.75;4.15;;;9.30;99.90;;;;;;6295357;22;19999;-75
2021/10/07 04:39:31;;;;;;;11.60;3.70;;;9.30;99.90;;;;;;6300259;22;20006;-78
2021/10/07 04:41:57;;;;;;;6.35;3.72;;;9.30;99.90;;;;;;6272394;22;20125;-74
2021/10/07 04:44:22;;;;;;;8.68;3.70;;;9.20;99.90;;;;;;6299323;22;20010;-78
2021/10/07 04:46:48;;;;;;;7.22;3.92;;;9.20;99.90;;;;;;6300005;22;20014;-79
2021/10/07 04:49:13;;;;;;;5.88;3.88;;;9.20;99.90;;;;;;6299166;22;20007;-77
2021/10/07 04:51:39;;;;;;;12.82;4.10;;;9.20;99.90;;;;;;6298857;22;20435;-77
2021/10/07 04:54:05;;;;;;;6.72;4.03;;;9.20;99.90;;;;;;6300453;22;19995;-78
2021/10/07 04:56:30;;;;;;;8.73;4.28;;;9.10;99.90;;;;;;6299762;22;20003;-76
2021/10/07 04:58:56;;;;;;;8.80;4.63;;;9.10;99.90;;;;;;6300369;22;20365;-76
2021/10/07 05:01:22;;;;;;;9.55;3.88;;;9.10;99.90;;;;;;6299665;22;20007;-76
2021/10/07 05:03:51;;;;;;;7.70;4.63;;;9.10;99.90;;;;;;6300911;22;20482;-79
2021/10/07 05:06:17;;;;;;;9.60;4.75;;;9.00;99.90;;;;;;6301360;22;20003;-76
2021/10/07 05:08:43;;;;;;;7.30;3.95;;;9.00;99.90;;;;;;6271758;22;20003;-77
2021/10/07 05:11:09;;;;;;;7.18;4.55;;;8.90;99.90;;;;;;6298269;22;20014;-75
2021/10/07 05:13:34;;;;;;;10.15;4.88;;;8.90;99.90;;;;;;6299303;22;20006;-76
2021/10/07 05:16:00;;;;;;;16.98;5.65;;;8.90;99.90;;;;;;6299615;22;20353;-75
2021/10/07 05:18:25;;;;;;;10.85;4.82;;;8.80;99.90;;;;;;6296526;22;20018;-80
2021/10/07 05:20:51;;;;;;;12.85;5.35;;;8.80;99.90;;;;;;6273084;22;20052;-75
2021/10/07 05:23:17;;;;;;;13.25;5.45;;;8.80;99.90;;;;;;6272465;22;20003;-75
2021/10/07 05:25:43;;;;;;;17.55;5.70;;;8.80;99.90;;;;;;6301053;22;20059;-76
2021/10/07 05:28:09;;;;;;;7.28;4.28;;;8.80;99.90;;;;;;6300683;22;20003;-75
2021/10/07 05:30:34;;;;;;;8.82;4.72;;;8.70;99.90;;;;;;6300462;22;20007;-75
2021/10/07 05:33:00;;;;;;;9.77;4.85;;;8.70;99.90;;;;;;6300353;22;20373;-74
2021/10/07 05:35:27;;;;;;;12.43;5.10;;;8.70;99.90;;;;;;6300657;22;20574;-76
2021/10/07 05:37:53;;;;;;;8.95;5.13;;;8.70;99.90;;;;;;6298892;22;20003;-77
2021/10/07 05:40:18;;;;;;;8.13;5.03;;;8.60;99.90;;;;;;6301153;22;20497;-75
2021/10/07 05:42:44;;;;;;;9.48;5.55;;;8.60;99.90;;;;;;6300254;22;20009;-75
2021/10/07 05:45:10;;;;;;;7.97;5.60;;;8.60;99.90;;;;;;6300461;22;20035;-76
2021/10/07 05:47:38;;;;;;;15.35;5.50;;;8.60;99.90;;;;;;6300485;22;20009;-75
2021/10/07 05:50:05;;;;;;;9.30;4.47;;;8.50;99.90;;;;;;6299135;22;20006;-75
2021/10/07 05:52:30;;;;;;;7.18;3.85;;;8.50;99.90;;;;;;6299881;22;20052;-76
2021/10/07 05:54:56;;;;;;;10.20;5.13;;;8.50;99.90;;;;;;6300008;22;20071;-75
2021/10/07 05:57:22;;;;;;;6.78;4.55;;;8.50;99.90;;;;;;6301087;22;19999;-76
2021/10/07 05:59:47;;;;;;;5.10;3.97;;;8.50;99.90;;;;;;6300286;22;19999;-76
2021/10/07 06:02:13;;;;;;;8.00;4.75;;;8.50;99.90;;;;;;6300416;22;20011;-76
2021/10/07 06:04:38;;;;;;;9.45;4.43;;;8.40;99.90;;;;;;6300512;22;20013;-75
2021/10/07 06:07:04;;;;;;;7.10;4.45;;;8.40;99.90;;;;;;6299982;22;19995;-76
2021/10/07 06:09:29;;;;;;;6.95;4.38;;;8.40;99.90;;;;;;6300532;22;20410;-74
2021/10/07 06:11:55;;;;;;;6.57;4.50;;;8.40;99.90;;;;;;6299967;22;20064;-76
2021/10/07 06:14:23;;;;;;;12.32;5.10;;;8.40;99.90;;;;;;6300053;22;20037;-75
2021/10/07 06:16:50;;;;;;;8.60;4.65;;;8.40;99.90;;;;;;6301358;22;20283;-75
2021/10/07 06:19:17;;;;;;;7.93;4.40;;;8.50;99.90;;;;;;6299932;22;20456;-75
2021/10/07 06:21:42;;;;;;;11.85;5.53;;;8.50;99.90;;;;;;6300879;22;20010;-75
2021/10/07 06:24:08;;;;;;;8.88;5.72;;;8.50;99.90;;;;;;6300045;22;20074;-75
2021/10/07 06:26:33;;;;;;;9.82;5.15;;;8.60;99.90;;;;;;6298385;22;20007;-78
2021/10/07 06:28:59;;;;;;;8.80;5.85;;;8.60;99.90;;;;;;6300586;22;20031;-76
2021/10/07 06:31:25;;;;;;;10.02;4.72;;;8.60;99.90;;;;;;6302827;22;20011;-75
2021/10/07 06:33:50;;;;;;;8.63;4.93;;;8.70;99.90;;;;;;6301707;22;20010;-75
2021/10/07 06:36:16;;;;;;;7.93;5.03;;;8.80;99.90;;;;;;6302593;22;19999;-76
2021/10/07 06:38:42;;;;;;;6.53;5.22;;;8.80;99.90;;;;;;6303082;22;19999;-76
2021/10/07 06:41:08;;;;;;;8.68;5.60;;;8.90;99.90;;;;;;6302144;22;20098;-78
2021/10/07 06:43:33;;;;;;;11.00;5.78;;;8.90;99.90;;;;;;6302126;22;20030;-76
2021/10/07 06:45:59;;;;;;;13.18;6.07;;;9.00;99.90;;;;;;6302667;22;20267;-76
2021/10/07 06:48:24;;;;;;;9.57;5.47;;;9.10;99.90;;;;;;6301833;22;19999;-77
2021/10/07 06:50:49;;;;;;;9.85;6.10;;;9.10;99.90;;;;;;6302811;22;20322;-76
2021/10/07 06:53:17;;;;;;;9.30;5.85;;;9.20;99.90;;;;;;6274603;22;20003;-76
2021/10/07 06:55:42;;;;;;;11.75;6.25;;;9.20;99.90;;;;;;6301292;22;20007;-77
2021/10/07 06:58:08;;;;;;;9.77;5.82;;;9.30;99.90;;;;;;6301976;22;20185;-77
2021/10/07 07:00:34;;;;;;;7.72;5.82;;;9.40;99.90;;;;;;6302492;22;20581;-75
2021/10/07 07:02:59;;;;;;;9.85;5.57;;;9.50;99.90;;;;;;6301914;22;20074;-75
2021/10/07 07:05:26;;;;;;;10.40;5.88;;;9.50;99.90;;;;;;6301974;22;20355;-76
2021/10/07 07:07:52;;;;;;;9.20;5.38;;;9.60;99.90;;;;;;6302410;22;19995;-75
2021/10/07 07:10:18;;;;;;;12.88;5.45;;;9.70;99.90;;;;;;6303078;22;20098;-75
2021/10/07 07:12:48;;;;;;;9.32;5.65;;;9.80;99.90;;;;;;6302668;22;20003;-75
2021/10/07 07:15:14;;;;;;;7.45;4.85;;;9.90;99.90;;;;;;6274167;22;20094;-74
2021/10/07 07:17:40;;;;;;;10.15;6.13;;;9.90;99.90;;;;;;6302003;22;20034;-76
2021/10/07 07:20:06;;;;;;;8.10;5.80;;;10.00;99.90;;;;;;6303289;22;19999;-76
2021/10/07 07:22:32;;;;;;;7.20;5.63;;;10.10;99.90;;;;;;6302873;22;20414;-75
2021/10/07 07:24:57;;;;;;;7.15;5.35;;;10.20;99.90;;;;;;6300990;22;20006;-75
2021/10/07 07:27:23;;;;;;;7.30;4.57;;;10.20;99.90;;;;;;6302980;22;20007;-75
2021/10/07 07:29:49;;;;;;;8.15;5.68;;;10.30;99.90;;;;;;6301763;22;20508;-76
2021/10/07 07:32:15;;;;;;;17.48;6.25;;;10.40;99.90;;;;;;6274534;22;20425;-75
2021/10/07 07:34:41;;;;;;;8.13;5.68;;;10.40;99.90;;;;;;6274500;22;20041;-75
2021/10/07 07:37:06;;;;;;;6.57;5.63;;;10.50;99.90;;;;;;6302103;22;20486;-75
2021/10/07 07:39:32;;;;;;;7.65;5.60;;;10.60;99.90;;;;;;6301498;22;20010;-76
2021/10/07 07:41:57;;;;;;;7.82;5.45;;;10.60;99.90;;;;;;6300585;22;20473;-74
2021/10/07 07:44:23;;;;;;;10.38;6.10;;;10.70;99.90;;;;;;6301603;22;20014;-75
2021/10/07 07:46:49;;;;;;;11.75;5.65;;;10.80;99.90;;;;;;6301720;22;19991;-77
2021/10/07 07:49:14;;;;;;;12.70;4.63;;;10.80;99.90;;;;;;6300549;22;20003;-75
2021/10/07 07:51:40;;;;;;;6.43;4.45;;;10.90;99.90;;;;;;6301353;22;20433;-75
2021/10/07 07:54:06;;;;;;;8.13;4.85;;;11.00;99.90;;;;;;6300443;22;20092;-75
2021/10/07 07:56:31;;;;;;;7.45;5.78;;;11.10;99.90;;;;;;6301666;22;20612;-76
2021/10/07 07:58:57;;;;;;;6.15;5.10;;;11.20;99.90;;;;;;6300796;22;20307;-76
2021/10/07 08:01:24;;;;;;;6.07;4.80;;;11.20;99.90;;;;;;6301383;22;20017;-76
2021/10/07 08:03:49;;;;;;;9.52;4.97;;;11.30;99.90;;;;;;6301812;22;20440;-76
2021/10/07 08:06:15;;;;;;;7.85;4.68;;;11.40;99.90;;;;;;6300308;22;20078;-76
2021/10/07 08:08:40;;;;;;;11.30;5.63;;;11.50;99.90;;;;;;6300468;22;20429;-75
2021/10/07 08:11:06;;;;;;;6.10;4.18;;;11.50;99.90;;;;;;6300656;22;20003;-74
2021/10/07 08:13:32;;;;;;;7.60;4.70;;;11.70;99.90;;;;;;6301404;22;20000;-75
2021/10/07 08:15:57;;;;;;;7.50;4.45;;;11.70;99.90;;;;;;6300484;22;20007;-76
2021/10/07 08:18:23;;;;;;;6.70;4.13;;;11.90;99.90;;;;;;6300681;22;20019;-75
2021/10/07 08:20:51;;;;;;;7.97;4.30;;;12.00;99.60;;;;;;6300875;22;20025;-75
2021/10/07 08:23:17;;;;;;;18.30;5.68;;;12.10;99.50;;;;;;6300435;22;19999;-76
2021/10/07 08:25:42;;;;;;;6.43;4.55;;;12.20;99.30;;;;;;6301080;22;19999;-75
2021/10/07 08:28:09;;;;;;;8.27;4.32;;;12.30;99.10;;;;;;6300075;22;20003;-77
2021/10/07 08:30:36;;;;;;;6.18;3.58;;;12.40;98.80;;;;;;6301332;22;20008;-75
2021/10/07 08:33:02;;;;;;;9.23;3.20;;;12.50;98.70;;;;;;6300375;22;20307;-75
2021/10/07 08:35:27;;;;;;;11.52;3.60;;;12.70;98.50;;;;;;6300548;22;20141;-76
2021/10/07 08:37:53;;;;;;;6.32;3.25;;;12.80;98.10;;;;;;6300315;22;20071;-75
2021/10/07 08:40:18;;;;;;;5.50;3.05;;;12.90;98.10;;;;;;6273749;22;20014;-75
2021/10/07 08:42:44;;;;;;;11.50;3.85;;;13.00;98.10;;;;;;6300394;22;19999;-76
2021/10/07 08:45:11;;;;;;;7.80;3.50;;;13.10;98.10;;;;;;6299659;22;20084;-75
2021/10/07 08:47:38;;;;;;;4.55;2.78;;;13.30;97.70;;;;;;6300213;22;20007;-75
2021/10/07 08:50:07;;;;;;;6.28;3.10;;;13.40;97.60;;;;;;6300331;22;20007;-75
2021/10/07 08:52:32;;;;;;;6.13;3.08;;;13.50;97.20;;;;;;6298854;22;20014;-75
2021/10/07 08:54:58;;;;;;;4.93;2.22;;;13.60;97.10;;;;;;6300372;22;20019;-75
2021/10/07 08:57:23;;;;;;;2.50;1.60;;;13.70;97.00;;;;;;6300006;22;20326;-75
2021/10/07 08:59:49;;;;;;;4.07;2.33;;;13.80;97.00;;;;;;6299850;22;20056;-75
2021/10/07 09:02:32;;;;;;;2.58;1.70;;;14.00;96.80;;;;;;6299778;22;20003;-76
2021/10/07 09:05:07;;;;;;;;;;;14.10;96.40;;;;;;6299453;22;20049;-78
2021/10/07 09:07:32;;;;;;;2.55;1.83;;;14.20;95.30;;;;;;6272501;22;19910;-77
2021/10/07 09:09:58;;;;;;;2.47;1.58;;;14.30;95.90;;;;;;6299601;22;19999;-76
2021/10/07 09:12:24;;;;;;;2.58;1.63;;;14.40;95.70;;;;;;6299732;22;20027;-77
2021/10/07 09:14:51;;;;;;;3.38;1.60;;;14.50;95.50;;;;;;6299755;22;20004;-77
2021/10/07 09:17:19;;;;;;;2.58;1.52;;;14.60;95.30;;;;;;6299643;22;20011;-77
2021/10/07 09:19:47;;;;;;;3.92;1.77;;;14.80;94.70;;;;;;6298447;22;20456;-77
2021/10/07 09:22:22;;;;;;;3.22;1.58;;;14.90;94.50;;;;;;6299495;22;20007;-76
2021/10/07 09:24:54;;;;;;;3.95;1.17;;;15.00;94.20;;;;;;6300560;22;20414;-77
2021/10/07 09:27:22;;;;;;;2.40;1.13;;;15.10;94.20;;;;;;6300388;22;20464;-76
2021/10/07 09:29:55;;;;;;;3.13;1.17;;;15.20;93.30;;;;;;6300294;22;20029;-77
2021/10/07 09:32:23;;;;;;;;;;;15.30;93.20;;;;;;6301277;22;20061;-76
2021/10/07 09:34:50;;;;;;;4.20;1.45;;;15.30;93.40;;;;;;6299989;22;19899;-77
2021/10/07 09:37:28;;;;;;;0.85;0.85;;;15.40;93.20;;;;;;6300178;22;19999;-77
2021/10/07 09:40:00;;;;;;;1.42;0.93;;;15.50;92.70;;;;;;6300191;22;20003;-76
2021/10/07 09:42:30;;;;;;;2.85;0.93;;;15.60;92.90;;;;;;6300420;22;20029;-76
2021/10/07 09:45:08;;;;;;;2.40;0.95;;;15.60;92.30;;;;;;6299693;22;19999;-76
2021/10/07 09:47:37;;;;;;;2.47;0.93;;;15.60;92.20;;;;;;6299985;22;20008;-75
2021/10/07 09:50:26;;;;;;;1.52;1.33;;;15.70;91.80;;;;;;6299825;22;20052;-77
2021/10/07 09:53:07;;;;;;;3.08;1.50;;;15.80;92.20;;;;;;6279862;22;20125;-76
2021/10/07 09:55:40;;;;;;;2.35;1.40;;;15.80;92.00;;;;;;6299824;22;20026;-77
2021/10/07 09:58:26;;;;;;;2.63;1.23;;;15.90;92.30;;;;;;6298965;22;20322;-76
2021/10/07 10:00:55;;;;;;;1.80;1.10;;;16.00;91.90;;;;;;6299821;22;20041;-77
2021/10/07 10:03:21;;;;;;;4.47;0.95;;;16.00;91.30;;;;;;6300060;22;20031;-77
2021/10/07 10:05:48;;;;;;;4.18;1.30;;;16.10;91.70;;;;;;6272957;22;20516;-77
2021/10/07 10:08:16;;;;;;;2.05;1.10;;;16.10;91.50;;;;;;6298915;22;20026;-77
2021/10/07 10:10:43;;;;;;;1.85;1.00;;;16.20;91.40;;;;;;6299572;22;20393;-77
2021/10/07 10:13:11;;;;;;;1.10;0.77;;;16.30;91.10;;;;;;6300254;22;19999;-77
2021/10/07 10:15:37;;;;;;;1.70;0.95;;;16.30;90.80;;;;;;6299229;22;20034;-77
2021/10/07 10:18:11;;;;;;;3.00;1.02;;;16.30;90.20;;;;;;6299504;22;19999;-77
2021/10/07 10:20:43;;;;;;;3.80;1.17;;;16.40;90.70;;;;;;6271839;22;20004;-77
2021/10/07 10:23:15;;;;;;;0.85;0.75;;;16.50;88.00;;;;;;6300577;22;20445;-77
2021/10/07 10:25:58;;;;;;;;;;;16.50;89.30;;;;;;6299280;22;20000;-77
2021/10/07 10:28:49;;;;;;;3.58;0.95;;;16.50;89.10;;;;;;6298528;22;19910;-80
2021/10/07 10:31:17;;;;;;;2.70;0.88;;;16.60;89.40;;;;;;6273086;22;20042;-88
2021/10/07 10:33:48;;;;;;;4.10;0.75;;;16.70;89.10;;;;;;6274097;22;20014;-86
2021/10/07 10:36:27;;;;;;;1.70;0.93;;;16.80;89.20;;;;;;6273117;22;20493;-86
2021/10/07 10:39:00;;;;;;;1.38;0.80;;;16.90;89.30;;;;;;6272665;22;20086;-86
2021/10/07 10:42:00;;;;;;;1.98;1.02;;;16.90;88.50;;;;;;6300392;22;20000;-87
2021/10/07 10:44:40;;;;;;;2.38;0.85;;;16.90;88.20;;;;;;6272834;22;20355;-86
2021/10/07 10:47:06;;;;;;;2.47;0.93;;;17.00;89.10;;;;;;6300052;22;20027;-86
2021/10/07 10:49:54;;;;;;;2.08;0.80;;;17.00;89.20;;;;;;6271836;22;20003;-87
2021/10/07 10:52:36;;;;;;;2.70;0.90;;;17.10;88.60;;;;;;6273133;22;20678;-85
2021/10/07 10:55:09;;;;;;;3.13;0.88;;;17.20;86.50;;;;;;6299932;22;19999;-86
2021/10/07 10:57:44;;;;;;;2.63;1.45;;;17.20;86.70;;;;;;6272806;22;20018;-87
2021/10/07 11:00:12;;;;;;;1.48;0.90;;;17.30;86.50;;;;;;6272930;22;20672;-87
2021/10/07 11:02:46;;;;;;;1.55;0.77;;;17.30;87.90;;;;;;6274868;22;20011;-87
2021/10/07 11:05:29;;;;;;;2.85;1.00;;;17.40;88.10;;;;;;6301785;22;20019;-92
2021/10/07 11:08:21;;;;;;;1.13;0.50;;;17.50;86.10;;;;;;6101859;23;20049;-79
2021/10/07 11:10:50;;;;;;;1.73;0.70;;;17.60;85.40;;;;;;6135526;23;20009;-78
2021/10/07 11:13:19;;;;;;;1.08;0.52;;;17.70;84.30;;;;;;6144581;23;20194;-78
2021/10/07 11:15:52;;;;;;;4.25;0.88;;;17.70;86.40;;;;;;6119383;23;20009;-78
2021/10/07 11:18:18;;;;;;;2.15;0.52;;;17.80;85.40;;;;;;6145315;23;20234;-77
2021/10/07 11:20:44;;;;;;;1.50;0.73;;;17.80;86.00;;;;;;6144401;23;20013;-77
2021/10/07 11:23:11;;;;;;;1.83;0.80;;;17.90;85.50;;;;;;6147633;23;20006;-77
2021/10/07 11:25:48;;;;;;;1.95;0.60;;;18.00;85.40;;;;;;6144412;23;20068;-77
2021/10/07 11:28:14;;;;;;;0.60;0.57;;;18.10;83.80;;;;;;6145518;23;20009;-76
2021/10/07 11:30:42;;;;;;;5.18;0.80;;;18.20;83.20;;;;;;6144921;23;20014;-76
2021/10/07 11:33:09;;;;;;;13.90;1.10;;;18.30;84.60;;;;;;6146965;23;20012;-78
2021/10/07 11:35:35;;;;;;;2.22;0.70;;;18.40;82.70;;;;;;6120171;23;20025;-78
2021/10/07 11:38:13;;;;;;;2.20;0.57;;;18.50;82.10;;;;;;6149452;23;20594;-78
2021/10/07 11:40:53;;;;;;;2.50;1.15;;;18.50;84.00;;;;;;6239644;23;20065;-77
2021/10/07 11:43:24;;;;;;;1.17;0.52;;;18.60;82.10;;;;;;6238034;23;20509;-78
2021/10/07 11:45:58;;;;;;;1.80;0.60;;;18.70;81.60;;;;;;6239062;23;20007;-77
2021/10/07 11:48:24;;;;;;;1.95;0.65;;;18.80;83.40;;;;;;6237916;23;19996;-78
2021/10/07 11:50:51;;;;;;;2.10;0.70;;;19.00;80.60;;;;;;6238917;23;20008;-77
2021/10/07 11:53:31;;;;;;;2.22;0.70;;;19.00;82.20;;;;;;6239987;23;20075;-78
2021/10/07 11:55:58;;;;;;;1.58;0.47;;;19.10;80.30;;;;;;6238213;23;20008;-78
2021/10/07 11:58:26;;;;;;;1.83;0.77;;;19.20;81.50;;;;;;6238302;23;20019;-78
2021/10/07 12:00:52;;;;;;;1.30;0.80;;;19.30;82.40;;;;;;6238604;23;20026;-78
2021/10/07 12:03:27;;;;;;;2.67;0.63;;;19.40;80.70;;;;;;6240153;23;20004;-78
2021/10/07 12:05:59;;;;;;;1.67;0.52;;;19.50;80.30;;;;;;6238773;23;20004;-79
2021/10/07 12:08:28;;;;;;;1.02;0.60;;;19.60;79.70;;;;;;6238120;23;20002;-76
2021/10/07 12:11:00;;;;;;;2.25;0.70;;;19.70;79.40;;;;;;6238436;23;20008;-78
2021/10/07 12:13:29;;;;;;;1.45;0.68;;;19.70;78.40;;;;;;6239257;23;20000;-77
2021/10/07 12:15:57;;;;;;;7.20;0.65;;;19.80;78.30;;;;;;6238458;23;20007;-78
2021/10/07 12:18:26;;;;;;;0.88;0.50;;;19.90;78.10;;;;;;6236849;22;20150;-78
2021/10/07 12:20:57;;;;;;;2.03;0.60;;;20.00;77.20;;;;;;6238827;23;20058;-77
2021/10/07 12:23:23;;;;;;;1.15;0.40;;;20.00;76.70;;;;;;6239651;23;20001;-78
2021/10/07 12:25:54;;;;;;;2.03;0.90;;;20.00;75.50;;;;;;6237622;23;20000;-78
2021/10/07 12:28:19;;;;;;;2.08;0.88;;;20.00;77.00;;;;;;6237320;22;20038;-77
2021/10/07 12:30:57;;;;;;;2.28;0.50;;;20.00;76.50;;;;;;6238441;23;20040;-77
2021/10/07 12:33:28;;;;;;;3.33;1.02;;;19.90;76.30;;;;;;6239244;23;20038;-77
2021/10/07 12:36:03;;;;;;;1.38;0.60;;;19.70;76.50;;;;;;6237781;23;20058;-77
2021/10/07 12:38:29;;;;;;;2.10;0.70;;;19.50;78.60;;;;;;6237628;23;20008;-78
2021/10/07 12:40:59;;;;;;;1.40;0.50;;;19.40;80.20;;;;;;6238431;23;20057;-77
2021/10/07 12:43:25;;;;;;;1.65;0.63;;;19.20;81.10;;;;;;6239047;23;20006;-78
2021/10/07 12:46:05;;;;;;;1.30;0.70;;;19.20;82.10;;;;;;6238485;23;20000;-77
2021/10/07 12:48:48;;;;;;;2.15;0.70;;;19.10;83.10;;;;;;6238086;23;20002;-78
2021/10/07 12:51:15;;;;;;;2.35;0.57;;;19.10;81.90;;;;;;6238695;23;20062;-78
2021/10/07 12:53:46;;;;;;;4.78;1.60;;;19.10;81.80;;;;;;6239393;23;20004;-78
2021/10/07 12:56:14;;;;;;;3.28;0.57;;;19.00;81.40;;;;;;6238386;23;19996;-77
2021/10/07 12:59:07;;;;;;;1.52;0.40;;;19.00;82.20;;;;;;6236528;23;20009;-76